createdAt,value
2018-06-18T00:00:48.117Z,49.20
2018-06-18T00:05:43.530Z,49.20
2018-06-18T00:08:11.207Z,48.90
2018-06-18T00:10:38.920Z,49.40
2018-06-18T00:13:06.734Z,48.80
2018-06-18T00:15:34.487Z,48.70
2018-06-18T00:18:02.185Z,49.20
2018-06-18T00:20:29.964Z,49.40
2018-06-18T00:22:58.176Z,50.20
2018-06-18T00:25:25.925Z,49.50
2018-06-18T00:27:53.656Z,49.50
2018-06-18T00:30:21.362Z,49.20
2018-06-18T00:35:16.809Z,49.40
2018-06-18T00:37:44.522Z,49.50
2018-06-18T00:40:12.218Z,49.60
2018-06-18T00:42:40.078Z,50.10
2018-06-18T00:45:08.089Z,50.50
2018-06-18T00:47:35.877Z,49.60
2018-06-18T00:50:03.725Z,49.50
2018-06-18T00:52:32.010Z,49.20
2018-06-18T00:54:59.764Z,49.10
2018-06-18T00:57:28.043Z,49.10
2018-06-18T00:59:55.831Z,49.50
2018-06-18T01:04:51.330Z,50.00
2018-06-18T01:07:19.039Z,49.60
2018-06-18T01:09:46.760Z,49.40
2018-06-18T01:12:14.510Z,49.80
2018-06-18T01:14:42.229Z,49.80
2018-06-18T01:17:09.951Z,50.20
2018-06-18T01:19:37.651Z,49.70
2018-06-18T01:22:05.651Z,49.60
2018-06-18T01:24:56.214Z,49.70
2018-06-18T01:27:24.462Z,49.80
2018-06-18T01:29:52.195Z,50.30
2018-06-18T01:32:19.907Z,50.20
2018-06-18T01:34:47.704Z,49.90
2018-06-18T01:37:15.371Z,50.10
2018-06-18T01:42:10.774Z,50.90
2018-06-18T01:44:38.488Z,51.10
2018-06-18T01:47:06.157Z,51.40
2018-06-18T01:49:33.912Z,51.40
2018-06-18T01:52:01.662Z,51.30
2018-06-18T01:54:29.363Z,51.30
2018-06-18T01:59:24.771Z,51.40
2018-06-18T02:01:52.473Z,51.50
2018-06-18T02:04:20.193Z,51.40
2018-06-18T02:06:47.890Z,51.40
2018-06-18T02:09:15.583Z,51.20
2018-06-18T02:11:43.318Z,51.10
2018-06-18T02:16:39.127Z,51.30
2018-06-18T02:19:06.987Z,51.20
2018-06-18T02:21:34.713Z,51.50
2018-06-18T02:24:02.451Z,51.50
2018-06-18T02:26:30.168Z,51.10
2018-06-18T02:29:03.598Z,51.00
2018-06-18T02:31:37.066Z,50.90
2018-06-18T02:34:10.393Z,50.80
2018-06-18T02:36:44.867Z,50.90
2018-06-18T02:39:13.934Z,50.90
2018-06-18T02:41:42.600Z,50.90
2018-06-18T02:44:10.273Z,51.60
2018-06-18T02:46:37.973Z,51.80
2018-06-18T02:49:05.696Z,51.50
2018-06-18T02:51:33.421Z,51.40
2018-06-18T02:54:01.160Z,51.20
2018-06-18T02:56:42.008Z,51.30
2018-06-18T02:59:09.718Z,51.40
2018-06-18T03:01:37.410Z,50.90
2018-06-18T03:04:05.724Z,51.10
2018-06-18T03:06:33.811Z,50.60
2018-06-18T03:09:01.487Z,50.40
2018-06-18T03:11:29.206Z,51.20
2018-06-18T03:13:56.873Z,51.00
2018-06-18T03:16:24.629Z,51.50
2018-06-18T03:18:58.342Z,51.50
2018-06-18T03:21:31.981Z,51.90
2018-06-18T03:24:05.371Z,51.60
2018-06-18T03:26:39.726Z,51.40
2018-06-18T03:29:13.968Z,51.00
2018-06-18T03:31:43.123Z,51.40
2018-06-18T03:34:10.935Z,51.40
2018-06-18T03:36:39.494Z,51.40
2018-06-18T03:39:10.811Z,51.40
2018-06-18T03:41:38.595Z,51.60
2018-06-18T03:44:10.619Z,51.40
2018-06-18T03:46:38.638Z,51.50
2018-06-18T03:49:06.421Z,51.50
2018-06-18T03:51:34.159Z,51.50
2018-06-18T03:54:01.890Z,51.10
2018-06-18T03:56:29.737Z,51.00
2018-06-18T03:58:57.568Z,50.90
2018-06-18T04:02:02.362Z,51.00
2018-06-18T04:04:53.535Z,51.00
2018-06-18T04:10:01.221Z,52.10
2018-06-18T04:12:28.901Z,51.40
2018-06-18T04:14:56.947Z,51.40
2018-06-18T04:17:24.670Z,51.30
2018-06-18T04:19:52.429Z,51.00
2018-06-18T04:27:15.592Z,51.50
2018-06-18T04:29:43.307Z,51.40
2018-06-18T04:32:11.002Z,51.00
2018-06-18T04:34:44.258Z,51.20
2018-06-18T04:37:11.977Z,51.50
2018-06-18T04:39:39.704Z,51.30
2018-06-18T04:42:13.383Z,50.90
2018-06-18T04:45:51.219Z,51.00
2018-06-18T04:48:24.576Z,51.30
2018-06-18T04:50:57.851Z,51.70
2018-06-18T04:53:25.628Z,51.80
2018-06-18T04:55:53.439Z,51.10
2018-06-18T04:58:21.183Z,51.10
2018-06-18T05:01:17.736Z,50.80
2018-06-18T05:03:45.464Z,50.90
2018-06-18T05:06:13.211Z,50.70
2018-06-18T05:10:22.372Z,51.20
2018-06-18T05:12:50.300Z,50.90
2018-06-18T05:15:20.118Z,51.00
2018-06-18T05:17:47.879Z,51.10
2018-06-18T05:20:15.627Z,51.20
2018-06-18T05:22:43.423Z,51.30
2018-06-18T05:25:11.189Z,51.30
2018-06-18T05:27:38.950Z,51.30
2018-06-18T05:30:12.747Z,51.40
2018-06-18T05:32:40.875Z,51.40
2018-06-18T05:35:10.339Z,51.30
2018-06-18T05:37:47.590Z,50.90
2018-06-18T05:40:15.442Z,50.70
2018-06-18T05:45:10.986Z,50.50
2018-06-18T05:47:39.947Z,50.10
2018-06-18T05:50:07.739Z,50.00
2018-06-18T05:52:35.511Z,50.00
2018-06-18T05:55:03.313Z,49.60
2018-06-18T05:57:31.510Z,49.80
2018-06-18T06:02:27.109Z,48.90
2018-06-18T06:04:54.865Z,48.60
2018-06-18T06:07:22.684Z,48.60
2018-06-18T06:09:50.531Z,48.50
2018-06-18T06:12:18.253Z,49.00
2018-06-18T06:14:45.980Z,48.80
2018-06-18T06:17:13.691Z,48.20
2018-06-18T06:19:41.502Z,48.10
2018-06-18T06:22:09.252Z,48.30
2018-06-18T06:24:36.964Z,48.80
2018-06-18T06:27:04.919Z,48.30
2018-06-18T06:29:33.367Z,48.60
2018-06-18T06:32:01.027Z,48.70
2018-06-18T06:34:29.060Z,48.30
2018-06-18T06:36:56.795Z,48.70
2018-06-18T06:39:24.557Z,49.10
2018-06-18T06:42:05.066Z,49.20
2018-06-18T06:44:32.845Z,51.40
2018-06-18T06:47:00.563Z,51.90
2018-06-18T06:49:29.198Z,53.50
2018-06-18T06:51:56.993Z,54.60
2018-06-18T06:54:24.787Z,53.70
2018-06-18T06:56:52.530Z,53.20
2018-06-18T06:59:20.248Z,52.60
2018-06-18T07:01:48.364Z,52.20
2018-06-18T07:04:16.059Z,52.20
2018-06-18T07:06:43.814Z,53.70
2018-06-18T07:09:12.035Z,53.60
2018-06-18T07:11:40.032Z,51.80
2018-06-18T07:14:07.935Z,52.00
2018-06-18T07:16:35.638Z,52.60
2018-06-18T07:19:03.639Z,51.60
2018-06-18T07:21:31.454Z,52.00
2018-06-18T07:23:59.174Z,53.80
2018-06-18T07:28:54.822Z,53.40
2018-06-18T07:33:51.083Z,53.50
2018-06-18T07:36:18.918Z,54.10
2018-06-18T07:38:46.725Z,55.10
2018-06-18T07:41:14.438Z,55.40
2018-06-18T07:43:42.231Z,55.40
2018-06-18T07:46:09.943Z,54.60
2018-06-18T07:48:37.737Z,53.60
2018-06-18T07:51:05.554Z,52.50
2018-06-18T07:53:33.283Z,52.40
2018-06-18T07:56:00.952Z,53.00
2018-06-18T07:58:28.758Z,52.90
2018-06-18T08:00:56.482Z,52.40
2018-06-18T08:03:24.213Z,53.70
2018-06-18T08:05:51.958Z,53.60
2018-06-18T08:08:19.660Z,53.20
2018-06-18T08:10:47.377Z,51.80
2018-06-18T08:13:15.146Z,51.70
2018-06-18T08:15:42.875Z,52.10
2018-06-18T08:18:10.658Z,51.80
2018-06-18T08:20:38.456Z,51.20
2018-06-18T08:23:06.209Z,50.70
2018-06-18T08:25:34.870Z,50.00
2018-06-18T08:28:02.625Z,51.00
2018-06-18T08:30:30.484Z,51.30
2018-06-18T08:32:58.341Z,50.50
2018-06-18T08:35:26.069Z,50.20
2018-06-18T08:37:53.799Z,50.30
2018-06-18T08:42:49.249Z,49.20
2018-06-18T08:45:17.009Z,49.80
2018-06-18T08:47:44.734Z,50.30
2018-06-18T08:50:18.098Z,51.00
2018-06-18T08:52:51.599Z,52.10
2018-06-18T08:57:29.816Z,51.80
2018-06-18T09:00:03.333Z,51.60
2018-06-18T09:02:32.144Z,53.40
2018-06-18T09:05:05.853Z,55.80
2018-06-18T09:07:39.419Z,55.00
2018-06-18T09:10:07.154Z,54.50
2018-06-18T09:12:35.107Z,53.60
2018-06-18T09:15:03.783Z,54.20
2018-06-18T09:17:31.549Z,54.30
2018-06-18T09:19:59.267Z,53.80
2018-06-18T09:22:27.126Z,54.40
2018-06-18T09:27:22.692Z,56.30
2018-06-18T09:29:56.127Z,56.50
2018-06-18T09:32:24.013Z,55.50
2018-06-18T09:34:51.652Z,54.50
2018-06-18T09:37:19.579Z,56.10
2018-06-18T09:42:15.187Z,57.10
2018-06-18T09:44:42.923Z,56.50
2018-06-18T09:47:10.709Z,55.90
2018-06-18T09:49:44.069Z,56.60
2018-06-18T09:52:17.331Z,56.20
2018-06-18T09:54:51.196Z,55.30
2018-06-18T09:57:26.701Z,55.10
2018-06-18T09:59:59.435Z,54.70
2018-06-18T10:02:27.759Z,55.50
2018-06-18T10:04:57.448Z,56.00
2018-06-18T10:07:25.169Z,56.00
2018-06-18T10:09:53.206Z,55.20
2018-06-18T10:12:20.955Z,56.80
2018-06-18T10:14:48.651Z,57.00
2018-06-18T10:19:44.871Z,58.90
2018-06-18T10:22:12.571Z,59.30
2018-06-18T10:27:08.070Z,58.00
2018-06-18T10:29:35.847Z,58.50
2018-06-18T10:32:04.012Z,58.70
2018-06-18T10:34:37.323Z,58.40
2018-06-18T10:39:45.205Z,57.80
2018-06-18T10:42:18.578Z,56.90
2018-06-18T10:44:46.367Z,56.90
2018-06-18T10:47:14.674Z,59.90
2018-06-18T10:49:42.373Z,64.80
2018-06-18T10:52:10.077Z,67.90
2018-06-18T10:54:37.792Z,66.20
2018-06-18T10:57:05.553Z,65.60
2018-06-18T10:59:33.230Z,66.00
2018-06-18T11:02:00.910Z,64.80
2018-06-18T11:04:29.743Z,66.70
2018-06-18T11:06:57.539Z,64.10
2018-06-18T11:09:25.302Z,65.40
2018-06-18T11:11:53.117Z,65.40
2018-06-18T11:14:20.806Z,65.40
2018-06-18T11:16:54.372Z,63.80
2018-06-18T11:19:27.594Z,63.70
2018-06-18T11:22:01.100Z,65.60
2018-06-18T11:24:34.709Z,64.10
2018-06-18T11:27:03.536Z,65.40
2018-06-18T11:29:31.169Z,65.60
2018-06-18T11:31:58.981Z,68.70
2018-06-18T11:34:26.702Z,68.30
2018-06-18T11:36:54.556Z,67.30
2018-06-18T11:39:22.529Z,66.40
2018-06-18T11:41:50.369Z,67.00
2018-06-18T11:44:19.651Z,67.10
2018-06-18T11:46:47.413Z,66.50
2018-06-18T11:49:15.101Z,66.30
2018-06-18T11:51:42.811Z,66.20
2018-06-18T11:54:10.535Z,64.40
2018-06-18T11:56:38.277Z,61.60
2018-06-18T11:59:11.802Z,62.10
2018-06-18T12:01:45.242Z,62.00
2018-06-18T12:06:52.112Z,64.80
2018-06-18T12:09:26.128Z,64.10
2018-06-18T12:11:53.893Z,64.70
2018-06-18T12:14:21.647Z,65.80
2018-06-18T12:16:49.393Z,65.40
2018-06-18T12:19:17.081Z,66.20
2018-06-18T12:21:44.789Z,68.60
2018-06-18T12:24:12.695Z,71.20
2018-06-18T12:26:40.410Z,71.10
2018-06-18T12:29:08.389Z,70.60
2018-06-18T12:31:36.103Z,67.90
2018-06-18T12:34:03.819Z,65.20
2018-06-18T12:36:31.737Z,65.60
2018-06-18T12:38:59.439Z,67.60
2018-06-18T12:41:27.288Z,68.40
2018-06-18T12:43:57.474Z,67.70
2018-06-18T12:46:30.947Z,68.10
2018-06-18T12:49:04.664Z,64.80
2018-06-18T12:51:38.171Z,63.60
2018-06-18T12:56:45.196Z,65.80
2018-06-18T12:59:14.194Z,67.50
2018-06-18T13:01:47.781Z,67.40
2018-06-18T13:04:15.529Z,67.70
2018-06-18T13:06:43.202Z,66.70
2018-06-18T13:11:38.695Z,67.20
2018-06-18T13:14:06.443Z,66.60
2018-06-18T13:16:34.138Z,65.60
2018-06-18T13:19:01.923Z,64.50
2018-06-18T13:21:30.630Z,62.00
2018-06-18T13:23:58.347Z,60.80
2018-06-18T13:26:26.029Z,60.20
2018-06-18T13:28:53.829Z,58.00
2018-06-18T13:31:21.615Z,57.40
2018-06-18T13:33:49.334Z,56.30
2018-06-18T13:36:17.138Z,55.70
2018-06-18T13:38:50.452Z,54.50
2018-06-18T13:41:25.643Z,53.70
2018-06-18T13:43:59.104Z,52.70
2018-06-18T13:46:32.462Z,53.20
2018-06-18T13:49:00.210Z,53.50
2018-06-18T13:51:29.167Z,54.30
2018-06-18T13:53:57.002Z,53.90
2018-06-18T13:56:24.947Z,53.60
2018-06-18T13:58:53.557Z,54.10
2018-06-18T14:01:21.334Z,54.10
2018-06-18T14:03:49.040Z,53.60
2018-06-18T14:06:16.808Z,53.60
2018-06-18T14:08:44.525Z,53.20
2018-06-18T14:11:12.221Z,52.90
2018-06-18T14:13:39.958Z,53.30
2018-06-18T14:16:07.698Z,52.70
2018-06-18T14:18:35.382Z,53.50
2018-06-18T14:21:03.088Z,53.90
2018-06-18T14:25:58.786Z,56.10
2018-06-18T14:28:26.499Z,55.70
2018-06-18T14:30:59.977Z,55.30
2018-06-18T14:33:33.364Z,54.60
2018-06-18T14:36:06.891Z,55.70
2018-06-18T14:41:09.058Z,57.00
2018-06-18T14:43:36.806Z,58.30
2018-06-18T14:46:04.704Z,56.40
2018-06-18T14:48:32.438Z,56.70
2018-06-18T14:51:00.070Z,57.20
2018-06-18T14:53:27.825Z,55.00
2018-06-18T14:56:02.772Z,57.20
2018-06-18T14:58:30.495Z,58.80
2018-06-18T15:00:58.254Z,59.00
2018-06-18T15:03:25.972Z,58.30
2018-06-18T15:05:54.521Z,57.70
2018-06-18T15:08:22.268Z,56.70
2018-06-18T15:10:53.617Z,56.70
2018-06-18T15:13:21.842Z,55.20
2018-06-18T15:18:23.084Z,54.10
2018-06-18T15:20:53.541Z,55.70
2018-06-18T15:23:21.260Z,56.20
2018-06-18T15:25:50.591Z,53.20
2018-06-18T15:28:18.310Z,51.30
2018-06-18T15:33:13.794Z,49.60
2018-06-18T15:35:41.487Z,49.30
2018-06-18T15:38:09.239Z,49.20
2018-06-18T15:40:36.977Z,49.90
2018-06-18T15:43:04.728Z,49.80
2018-06-18T15:45:32.461Z,50.50
2018-06-18T15:48:00.404Z,50.50
2018-06-18T15:50:29.234Z,49.00
2018-06-18T15:52:57.197Z,49.70
2018-06-18T15:55:24.896Z,49.30
2018-06-18T15:57:52.701Z,47.80
2018-06-18T16:00:20.427Z,46.60
2018-06-18T16:02:48.150Z,47.00
2018-06-18T16:05:15.843Z,46.70
2018-06-18T16:07:43.583Z,46.50
2018-06-18T16:10:11.455Z,45.40
2018-06-18T16:12:39.183Z,44.90
2018-06-18T16:15:06.887Z,45.80
2018-06-18T16:17:34.607Z,45.70
2018-06-18T16:20:02.348Z,47.80
2018-06-18T16:22:30.065Z,46.40
2018-06-18T16:24:57.796Z,46.10
2018-06-18T16:27:25.493Z,45.80
2018-06-18T16:29:53.188Z,45.80
2018-06-18T16:32:20.895Z,44.60
2018-06-18T16:34:48.642Z,43.90
2018-06-18T16:37:16.402Z,43.80
2018-06-18T16:39:44.164Z,44.30
2018-06-18T16:42:11.889Z,43.50
2018-06-18T16:44:39.593Z,44.50
2018-06-18T16:47:07.309Z,44.80
2018-06-18T16:52:02.741Z,46.50
2018-06-18T16:54:30.486Z,45.90
2018-06-18T16:56:58.197Z,45.90
2018-06-18T16:59:25.908Z,45.90
2018-06-18T17:01:53.601Z,45.70
2018-06-18T17:04:21.273Z,45.50
2018-06-18T17:06:49.079Z,45.60
2018-06-18T17:09:16.780Z,45.90
2018-06-18T17:11:44.519Z,45.80
2018-06-18T17:14:12.207Z,46.70
2018-06-18T17:16:40.000Z,46.60
2018-06-18T17:19:07.727Z,46.80
2018-06-18T17:21:35.442Z,46.20
2018-06-18T17:24:03.151Z,46.30
2018-06-18T17:26:30.855Z,47.20
2018-06-18T17:28:58.553Z,47.00
2018-06-18T17:33:53.948Z,47.00
2018-06-18T17:36:21.616Z,46.30
2018-06-18T17:38:49.351Z,47.00
2018-06-18T17:41:17.087Z,46.80
2018-06-18T17:43:44.769Z,46.10
2018-06-18T17:46:12.467Z,46.20
2018-06-18T17:48:40.172Z,46.50
2018-06-18T17:51:08.010Z,46.30
2018-06-18T17:53:35.691Z,46.00
2018-06-18T17:56:03.600Z,45.30
2018-06-18T17:58:31.313Z,45.40
2018-06-18T18:00:59.036Z,45.40
2018-06-18T18:03:26.739Z,45.90
2018-06-18T18:05:54.493Z,46.00
2018-06-18T18:08:22.236Z,47.70
2018-06-18T18:10:49.968Z,47.60
2018-06-18T18:13:17.793Z,47.40
2018-06-18T18:15:45.406Z,48.20
2018-06-18T18:18:13.155Z,47.50
2018-06-18T18:20:41.395Z,47.10
2018-06-18T18:23:09.112Z,48.10
2018-06-18T18:25:36.885Z,48.20
2018-06-18T18:28:04.907Z,48.20
2018-06-18T18:30:32.635Z,49.10
2018-06-18T18:33:00.333Z,48.40
2018-06-18T18:35:28.078Z,47.80
2018-06-18T18:37:55.831Z,46.70
2018-06-18T18:40:23.989Z,46.60
2018-06-18T18:42:51.781Z,45.30
2018-06-18T18:45:19.546Z,44.20
2018-06-18T18:47:47.386Z,43.70
2018-06-18T18:50:15.160Z,43.00
2018-06-18T18:52:45.470Z,42.60
2018-06-18T18:56:47.341Z,42.60
2018-06-18T18:59:25.596Z,42.90
2018-06-18T19:01:55.115Z,44.20
2018-06-18T19:04:33.665Z,43.80
2018-06-18T19:07:01.799Z,44.10
2018-06-18T19:09:34.640Z,43.30
2018-06-18T19:12:02.395Z,43.90
2018-06-18T19:14:30.226Z,44.00
2018-06-18T19:16:58.099Z,44.10
2018-06-18T19:19:31.385Z,44.00
2018-06-18T19:21:59.154Z,44.70
2018-06-18T19:24:26.862Z,43.70
2018-06-18T19:26:54.589Z,43.60
2018-06-18T19:29:22.573Z,43.30
2018-06-18T19:31:50.345Z,43.70
2018-06-18T19:34:22.390Z,43.80
2018-06-18T19:36:54.517Z,43.50
2018-06-18T19:39:25.989Z,43.60
2018-06-18T19:41:54.011Z,43.60
2018-06-18T19:44:21.842Z,43.30
2018-06-18T19:48:03.546Z,43.50
2018-06-18T19:50:31.232Z,43.90
2018-06-18T19:52:58.977Z,44.00
2018-06-18T19:55:29.404Z,45.00
2018-06-18T19:57:57.110Z,45.30
2018-06-18T20:00:33.303Z,45.20
2018-06-18T20:03:00.994Z,45.60
2018-06-18T20:05:28.701Z,45.70
2018-06-18T20:08:01.354Z,45.80
2018-06-18T20:10:29.067Z,46.20
2018-06-18T20:12:56.766Z,46.80
2018-06-18T20:15:24.996Z,46.90
2018-06-18T20:17:52.737Z,47.00
2018-06-18T20:20:20.767Z,47.00
2018-06-18T20:22:48.507Z,47.10
2018-06-18T20:25:20.158Z,47.20
2018-06-18T20:27:47.804Z,46.80
2018-06-18T20:30:15.535Z,46.70
2018-06-18T20:35:19.174Z,46.80
2018-06-18T20:37:46.898Z,47.30
2018-06-18T20:40:14.550Z,47.70
2018-06-18T20:42:42.313Z,48.40
2018-06-18T20:45:09.993Z,49.10
2018-06-18T20:47:37.655Z,49.90
2018-06-18T20:50:05.661Z,50.10
2018-06-18T20:52:33.402Z,49.70
2018-06-18T20:55:01.045Z,49.60
2018-06-18T20:57:28.741Z,49.50
2018-06-18T20:59:56.434Z,50.30
2018-06-18T21:04:51.829Z,51.40
2018-06-18T21:07:19.564Z,51.80
2018-06-18T21:09:47.344Z,52.60
2018-06-18T21:12:15.007Z,52.50
2018-06-18T21:14:42.727Z,52.60
2018-06-18T21:17:10.422Z,52.90
2018-06-18T21:19:38.362Z,52.40
2018-06-18T21:22:07.403Z,53.30
2018-06-18T21:24:35.085Z,53.00
2018-06-18T21:27:02.830Z,53.80
2018-06-18T21:29:30.521Z,53.90
2018-06-18T21:31:58.210Z,53.30
2018-06-18T21:34:25.895Z,53.50
2018-06-18T21:36:53.608Z,53.60
2018-06-18T21:39:21.327Z,54.00
2018-06-18T21:41:49.019Z,54.40
2018-06-18T21:44:24.903Z,55.60
2018-06-18T21:46:52.751Z,55.30
2018-06-18T21:49:20.476Z,56.00
2018-06-18T21:51:48.191Z,56.50
2018-06-18T21:54:15.940Z,56.80
2018-06-18T21:56:43.672Z,57.60
2018-06-18T21:59:11.357Z,58.00
2018-06-18T22:01:44.045Z,57.90
2018-06-18T22:04:12.513Z,58.00
2018-06-18T22:06:40.226Z,58.00
2018-06-18T22:09:15.540Z,58.30
2018-06-18T22:11:46.774Z,58.10
2018-06-18T22:14:14.510Z,58.40
2018-06-18T22:16:43.113Z,57.60
2018-06-18T22:19:10.794Z,58.80
2018-06-18T22:21:38.784Z,57.90
2018-06-18T22:24:06.637Z,57.80
2018-06-18T22:26:34.404Z,58.70
2018-06-18T22:29:02.175Z,59.00
2018-06-18T22:31:29.970Z,59.20
2018-06-18T22:33:57.811Z,59.50
2018-06-18T22:36:25.523Z,59.90
2018-06-18T22:38:53.275Z,60.00
2018-06-18T22:41:20.999Z,59.70
2018-06-18T22:43:48.689Z,59.10
2018-06-18T22:46:16.419Z,58.50
2018-06-18T22:48:44.341Z,58.20
2018-06-18T22:51:12.044Z,58.50
2018-06-18T22:53:39.753Z,58.20
2018-06-18T22:56:07.643Z,58.30
2018-06-18T22:58:35.325Z,58.20
2018-06-18T23:01:03.088Z,57.70
2018-06-18T23:03:30.775Z,57.10
2018-06-18T23:05:58.504Z,56.40
2018-06-18T23:09:55.807Z,55.30
2018-06-18T23:12:34.981Z,55.40
2018-06-18T23:15:02.754Z,56.20
2018-06-18T23:17:30.485Z,56.80
2018-06-18T23:19:58.214Z,56.10
2018-06-18T23:22:25.891Z,55.20
2018-06-18T23:24:53.606Z,55.40
2018-06-18T23:27:21.622Z,55.30
2018-06-18T23:29:49.345Z,55.60
2018-06-18T23:32:17.028Z,55.30
2018-06-18T23:37:12.439Z,57.10
2018-06-18T23:39:40.150Z,56.10
2018-06-18T23:42:07.867Z,56.10
2018-06-18T23:44:35.562Z,55.90
2018-06-18T23:47:03.305Z,56.30
2018-06-18T23:49:31.877Z,56.10
2018-06-18T23:51:59.597Z,55.90
2018-06-18T23:54:27.305Z,55.70
2018-06-18T23:56:55.013Z,56.50
2018-06-18T23:59:22.758Z,56.70
